sensor_id;sensor_type;location;lat;lon;timestamp;P1;durP1;ratioP1;P2;durP2;ratioP2
1446;SDS011;717;51.522;7.266;2023-02-23T00:02:17;34.90;;;30.23;;
1446;SDS011;717;51.522;7.266;2023-02-23T00:04:46;37.50;;;30.35;;
1446;SDS011;717;51.522;7.266;2023-02-23T00:07:15;32.88;;;29.25;;
1446;SDS011;717;51.522;7.266;2023-02-23T00:09:46;35.55;;;29.10;;
1446;SDS011;717;51.522;7.266;2023-02-23T00:12:17;34.72;;;29.05;;
1446;SDS011;717;51.522;7.266;2023-02-23T00:14:48;33.13;;;29.33;;
1446;SDS011;717;51.522;7.266;2023-02-23T00:17:16;34.95;;;30.45;;
1446;SDS011;717;51.522;7.266;2023-02-23T00:19:48;38.47;;;30.73;;
1446;SDS011;717;51.522;7.266;2023-02-23T00:22:16;35.78;;;31.13;;
1446;SDS011;717;51.522;7.266;2023-02-23T00:24:45;32.83;;;29.15;;
1446;SDS011;717;51.522;7.266;2023-02-23T00:27:17;34.08;;;30.42;;
1446;SDS011;717;51.522;7.266;2023-02-23T00:29:45;35.72;;;30.17;;
1446;SDS011;717;51.522;7.266;2023-02-23T00:32:16;35.25;;;30.60;;
1446;SDS011;717;51.522;7.266;2023-02-23T00:34:46;38.20;;;32.50;;
1446;SDS011;717;51.522;7.266;2023-02-23T00:37:16;42.25;;;33.95;;
1446;SDS011;717;51.522;7.266;2023-02-23T00:39:47;35.05;;;30.92;;
1446;SDS011;717;51.522;7.266;2023-02-23T00:42:18;37.78;;;31.88;;
1446;SDS011;717;51.522;7.266;2023-02-23T00:44:47;37.50;;;33.42;;
1446;SDS011;717;51.522;7.266;2023-02-23T00:47:15;36.90;;;31.30;;
1446;SDS011;717;51.522;7.266;2023-02-23T00:49:44;40.05;;;33.05;;
1446;SDS011;717;51.522;7.266;2023-02-23T00:52:13;38.60;;;32.08;;
1446;SDS011;717;51.522;7.266;2023-02-23T00:54:41;37.03;;;32.72;;
1446;SDS011;717;51.522;7.266;2023-02-23T00:57:10;39.22;;;32.75;;
1446;SDS011;717;51.522;7.266;2023-02-23T00:59:41;38.88;;;32.80;;
1446;SDS011;717;51.522;7.266;2023-02-23T01:02:10;39.90;;;33.28;;
1446;SDS011;717;51.522;7.266;2023-02-23T01:04:38;41.83;;;33.10;;
1446;SDS011;717;51.522;7.266;2023-02-23T01:07:07;39.65;;;32.55;;
1446;SDS011;717;51.522;7.266;2023-02-23T01:09:37;42.13;;;32.85;;
1446;SDS011;717;51.522;7.266;2023-02-23T01:12:05;40.63;;;33.75;;
1446;SDS011;717;51.522;7.266;2023-02-23T01:14:34;43.78;;;34.05;;
1446;SDS011;717;51.522;7.266;2023-02-23T01:17:07;44.17;;;35.65;;
1446;SDS011;717;51.522;7.266;2023-02-23T01:19:35;41.80;;;35.22;;
1446;SDS011;717;51.522;7.266;2023-02-23T01:22:04;45.80;;;35.53;;
1446;SDS011;717;51.522;7.266;2023-02-23T01:24:33;46.10;;;35.80;;
1446;SDS011;717;51.522;7.266;2023-02-23T01:27:02;46.03;;;36.22;;
1446;SDS011;717;51.522;7.266;2023-02-23T01:29:31;44.53;;;36.72;;
1446;SDS011;717;51.522;7.266;2023-02-23T01:32:00;43.65;;;35.63;;
1446;SDS011;717;51.522;7.266;2023-02-23T01:34:32;44.55;;;35.58;;
1446;SDS011;717;51.522;7.266;2023-02-23T01:37:00;49.08;;;37.72;;
1446;SDS011;717;51.522;7.266;2023-02-23T01:39:31;51.13;;;37.53;;
1446;SDS011;717;51.522;7.266;2023-02-23T01:42:00;48.85;;;37.72;;
1446;SDS011;717;51.522;7.266;2023-02-23T01:47:28;45.65;;;37.00;;
1446;SDS011;717;51.522;7.266;2023-02-23T01:49:59;49.78;;;37.80;;
1446;SDS011;717;51.522;7.266;2023-02-23T01:52:29;48.15;;;37.38;;
1446;SDS011;717;51.522;7.266;2023-02-23T01:54:58;52.15;;;38.92;;
1446;SDS011;717;51.522;7.266;2023-02-23T01:57:26;48.63;;;38.60;;
1446;SDS011;717;51.522;7.266;2023-02-23T01:59:55;46.83;;;38.38;;
1446;SDS011;717;51.522;7.266;2023-02-23T02:02:25;55.83;;;39.80;;
1446;SDS011;717;51.522;7.266;2023-02-23T02:05:00;50.88;;;39.80;;
1446;SDS011;717;51.522;7.266;2023-02-23T02:07:37;52.47;;;40.22;;
1446;SDS011;717;51.522;7.266;2023-02-23T02:10:09;49.83;;;39.38;;
1446;SDS011;717;51.522;7.266;2023-02-23T02:12:51;49.65;;;39.25;;
1446;SDS011;717;51.522;7.266;2023-02-23T02:15:24;50.78;;;39.80;;
1446;SDS011;717;51.522;7.266;2023-02-23T02:18:00;49.13;;;38.72;;
1446;SDS011;717;51.522;7.266;2023-02-23T02:20:55;49.65;;;39.17;;
1446;SDS011;717;51.522;7.266;2023-02-23T02:26:43;44.70;;;36.28;;
1446;SDS011;717;51.522;7.266;2023-02-23T02:32:44;48.10;;;36.65;;
1446;SDS011;717;51.522;7.266;2023-02-23T02:35:36;51.15;;;38.72;;
1446;SDS011;717;51.522;7.266;2023-02-23T02:38:21;50.47;;;37.60;;
1446;SDS011;717;51.522;7.266;2023-02-23T02:41:06;48.50;;;38.50;;
1446;SDS011;717;51.522;7.266;2023-02-23T02:43:42;51.47;;;38.78;;
1446;SDS011;717;51.522;7.266;2023-02-23T02:46:19;48.47;;;38.60;;
1446;SDS011;717;51.522;7.266;2023-02-23T02:48:53;48.83;;;38.33;;
1446;SDS011;717;51.522;7.266;2023-02-23T02:51:31;51.60;;;39.55;;
1446;SDS011;717;51.522;7.266;2023-02-23T02:54:12;47.80;;;38.63;;
1446;SDS011;717;51.522;7.266;2023-02-23T02:56:47;48.97;;;38.80;;
1446;SDS011;717;51.522;7.266;2023-02-23T02:59:21;51.42;;;41.10;;
1446;SDS011;717;51.522;7.266;2023-02-23T03:02:04;49.33;;;38.42;;
1446;SDS011;717;51.522;7.266;2023-02-23T03:04:45;48.97;;;38.90;;
1446;SDS011;717;51.522;7.266;2023-02-23T03:07:28;51.17;;;41.33;;
1446;SDS011;717;51.522;7.266;2023-02-23T03:10:20;51.65;;;41.00;;
1446;SDS011;717;51.522;7.266;2023-02-23T03:13:16;52.20;;;41.60;;
1446;SDS011;717;51.522;7.266;2023-02-23T03:16:07;49.80;;;39.92;;
1446;SDS011;717;51.522;7.266;2023-02-23T03:19:01;46.67;;;38.03;;
1446;SDS011;717;51.522;7.266;2023-02-23T03:21:53;51.17;;;40.17;;
1446;SDS011;717;51.522;7.266;2023-02-23T03:24:39;52.03;;;40.65;;
1446;SDS011;717;51.522;7.266;2023-02-23T03:27:34;49.53;;;38.92;;
1446;SDS011;717;51.522;7.266;2023-02-23T03:30:22;49.90;;;37.85;;
1446;SDS011;717;51.522;7.266;2023-02-23T03:33:10;51.55;;;38.45;;
1446;SDS011;717;51.522;7.266;2023-02-23T03:35:58;49.42;;;38.30;;
1446;SDS011;717;51.522;7.266;2023-02-23T03:38:44;51.90;;;39.22;;
1446;SDS011;717;51.522;7.266;2023-02-23T03:41:29;50.28;;;39.33;;
1446;SDS011;717;51.522;7.266;2023-02-23T03:44:15;49.47;;;38.13;;
1446;SDS011;717;51.522;7.266;2023-02-23T03:46:58;51.47;;;38.70;;
1446;SDS011;717;51.522;7.266;2023-02-23T03:49:41;47.75;;;38.08;;
1446;SDS011;717;51.522;7.266;2023-02-23T03:52:24;48.88;;;37.53;;
1446;SDS011;717;51.522;7.266;2023-02-23T03:55:11;49.58;;;38.00;;
1446;SDS011;717;51.522;7.266;2023-02-23T03:57:56;48.88;;;37.92;;
1446;SDS011;717;51.522;7.266;2023-02-23T04:00:43;49.75;;;38.05;;
1446;SDS011;717;51.522;7.266;2023-02-23T04:03:27;48.25;;;37.60;;
1446;SDS011;717;51.522;7.266;2023-02-23T04:06:11;49.47;;;37.60;;
1446;SDS011;717;51.522;7.266;2023-02-23T04:08:54;53.78;;;39.25;;
1446;SDS011;717;51.522;7.266;2023-02-23T04:11:39;50.78;;;37.13;;
1446;SDS011;717;51.522;7.266;2023-02-23T04:14:27;52.42;;;39.38;;
1446;SDS011;717;51.522;7.266;2023-02-23T04:17:01;50.85;;;39.20;;
1446;SDS011;717;51.522;7.266;2023-02-23T04:19:29;53.38;;;40.38;;
1446;SDS011;717;51.522;7.266;2023-02-23T04:21:57;52.58;;;40.50;;
1446;SDS011;717;51.522;7.266;2023-02-23T04:24:26;51.45;;;38.42;;
1446;SDS011;717;51.522;7.266;2023-02-23T04:26:55;49.30;;;37.80;;
1446;SDS011;717;51.522;7.266;2023-02-23T04:29:23;49.28;;;37.88;;
1446;SDS011;717;51.522;7.266;2023-02-23T04:31:52;49.97;;;37.15;;
1446;SDS011;717;51.522;7.266;2023-02-23T04:34:23;51.58;;;37.05;;
1446;SDS011;717;51.522;7.266;2023-02-23T04:36:52;48.45;;;37.05;;
1446;SDS011;717;51.522;7.266;2023-02-23T04:39:21;51.95;;;36.80;;
1446;SDS011;717;51.522;7.266;2023-02-23T04:41:49;50.63;;;35.70;;
1446;SDS011;717;51.522;7.266;2023-02-23T04:44:18;53.47;;;38.38;;
1446;SDS011;717;51.522;7.266;2023-02-23T04:46:47;48.38;;;35.03;;
1446;SDS011;717;51.522;7.266;2023-02-23T04:49:15;51.70;;;35.85;;
1446;SDS011;717;51.522;7.266;2023-02-23T04:51:47;52.53;;;36.13;;
1446;SDS011;717;51.522;7.266;2023-02-23T04:54:15;51.72;;;36.85;;
1446;SDS011;717;51.522;7.266;2023-02-23T04:56:44;49.13;;;35.78;;
1446;SDS011;717;51.522;7.266;2023-02-23T04:59:12;51.90;;;37.42;;
1446;SDS011;717;51.522;7.266;2023-02-23T05:01:41;49.40;;;35.13;;
1446;SDS011;717;51.522;7.266;2023-02-23T05:04:10;53.78;;;37.17;;
1446;SDS011;717;51.522;7.266;2023-02-23T05:06:38;55.40;;;36.88;;
1446;SDS011;717;51.522;7.266;2023-02-23T05:09:10;52.03;;;36.03;;
1446;SDS011;717;51.522;7.266;2023-02-23T05:11:38;53.80;;;35.75;;
1446;SDS011;717;51.522;7.266;2023-02-23T05:14:07;52.63;;;34.58;;
1446;SDS011;717;51.522;7.266;2023-02-23T05:16:37;52.58;;;34.75;;
1446;SDS011;717;51.522;7.266;2023-02-23T05:19:06;52.13;;;36.60;;
1446;SDS011;717;51.522;7.266;2023-02-23T05:21:34;53.25;;;36.25;;
1446;SDS011;717;51.522;7.266;2023-02-23T05:24:03;58.25;;;37.03;;
1446;SDS011;717;51.522;7.266;2023-02-23T05:26:35;54.85;;;34.92;;
1446;SDS011;717;51.522;7.266;2023-02-23T05:29:04;59.78;;;38.10;;
1446;SDS011;717;51.522;7.266;2023-02-23T05:31:33;61.83;;;38.17;;
1446;SDS011;717;51.522;7.266;2023-02-23T05:34:01;53.60;;;34.88;;
1446;SDS011;717;51.522;7.266;2023-02-23T05:36:30;55.08;;;36.65;;
1446;SDS011;717;51.522;7.266;2023-02-23T05:39:01;57.28;;;36.03;;
1446;SDS011;717;51.522;7.266;2023-02-23T05:41:30;58.92;;;36.75;;
1446;SDS011;717;51.522;7.266;2023-02-23T05:44:01;56.08;;;36.60;;
1446;SDS011;717;51.522;7.266;2023-02-23T05:46:30;55.80;;;36.78;;
1446;SDS011;717;51.522;7.266;2023-02-23T05:48:59;58.63;;;36.38;;
1446;SDS011;717;51.522;7.266;2023-02-23T05:51:29;57.28;;;36.78;;
1446;SDS011;717;51.522;7.266;2023-02-23T05:53:59;55.38;;;34.78;;
1446;SDS011;717;51.522;7.266;2023-02-23T05:56:28;57.42;;;37.85;;
1446;SDS011;717;51.522;7.266;2023-02-23T05:58:57;57.78;;;36.50;;
1446;SDS011;717;51.522;7.266;2023-02-23T06:01:29;57.60;;;37.65;;
1446;SDS011;717;51.522;7.266;2023-02-23T06:03:58;58.92;;;37.28;;
1446;SDS011;717;51.522;7.266;2023-02-23T06:06:27;56.63;;;36.35;;
1446;SDS011;717;51.522;7.266;2023-02-23T06:08:56;62.17;;;38.08;;
1446;SDS011;717;51.522;7.266;2023-02-23T06:11:24;57.88;;;37.08;;
1446;SDS011;717;51.522;7.266;2023-02-23T06:13:53;56.45;;;36.80;;
1446;SDS011;717;51.522;7.266;2023-02-23T06:16:22;55.58;;;36.60;;
1446;SDS011;717;51.522;7.266;2023-02-23T06:18:53;58.53;;;36.67;;
1446;SDS011;717;51.522;7.266;2023-02-23T06:21:22;56.70;;;37.53;;
1446;SDS011;717;51.522;7.266;2023-02-23T06:23:51;65.93;;;39.65;;
1446;SDS011;717;51.522;7.266;2023-02-23T06:26:20;57.30;;;38.33;;
1446;SDS011;717;51.522;7.266;2023-02-23T06:28:48;60.28;;;39.20;;
1446;SDS011;717;51.522;7.266;2023-02-23T06:31:17;57.42;;;38.00;;
1446;SDS011;717;51.522;7.266;2023-02-23T06:33:46;61.88;;;39.30;;
1446;SDS011;717;51.522;7.266;2023-02-23T06:36:17;70.60;;;43.88;;
1446;SDS011;717;51.522;7.266;2023-02-23T06:38:46;66.47;;;40.38;;
1446;SDS011;717;51.522;7.266;2023-02-23T06:41:14;61.92;;;40.58;;
1446;SDS011;717;51.522;7.266;2023-02-23T06:43:43;63.55;;;39.63;;
1446;SDS011;717;51.522;7.266;2023-02-23T06:46:12;62.90;;;41.78;;
1446;SDS011;717;51.522;7.266;2023-02-23T06:48:40;64.95;;;40.85;;
1446;SDS011;717;51.522;7.266;2023-02-23T06:51:09;68.15;;;41.55;;
1446;SDS011;717;51.522;7.266;2023-02-23T06:53:40;67.45;;;42.05;;
1446;SDS011;717;51.522;7.266;2023-02-23T06:56:09;67.65;;;41.15;;
1446;SDS011;717;51.522;7.266;2023-02-23T06:58:38;62.05;;;41.63;;
1446;SDS011;717;51.522;7.266;2023-02-23T07:01:07;62.53;;;41.03;;
1446;SDS011;717;51.522;7.266;2023-02-23T07:03:36;65.25;;;42.08;;
1446;SDS011;717;51.522;7.266;2023-02-23T07:06:05;67.63;;;42.05;;
1446;SDS011;717;51.522;7.266;2023-02-23T07:08:34;63.25;;;41.03;;
1446;SDS011;717;51.522;7.266;2023-02-23T07:11:09;69.35;;;42.78;;
1446;SDS011;717;51.522;7.266;2023-02-23T07:13:40;66.68;;;43.92;;
1446;SDS011;717;51.522;7.266;2023-02-23T07:16:10;64.07;;;41.78;;
1446;SDS011;717;51.522;7.266;2023-02-23T07:18:39;64.53;;;42.33;;
1446;SDS011;717;51.522;7.266;2023-02-23T07:21:08;64.45;;;41.40;;
1446;SDS011;717;51.522;7.266;2023-02-23T07:23:37;65.93;;;42.17;;
1446;SDS011;717;51.522;7.266;2023-02-23T07:26:05;69.25;;;42.45;;
1446;SDS011;717;51.522;7.266;2023-02-23T07:28:40;64.80;;;42.75;;
1446;SDS011;717;51.522;7.266;2023-02-23T07:31:08;68.10;;;42.25;;
1446;SDS011;717;51.522;7.266;2023-02-23T07:33:37;65.38;;;41.80;;
1446;SDS011;717;51.522;7.266;2023-02-23T07:36:07;68.45;;;44.65;;
1446;SDS011;717;51.522;7.266;2023-02-23T07:38:36;64.35;;;41.83;;
1446;SDS011;717;51.522;7.266;2023-02-23T07:41:05;64.72;;;41.90;;
1446;SDS011;717;51.522;7.266;2023-02-23T07:43:37;60.80;;;42.95;;
1446;SDS011;717;51.522;7.266;2023-02-23T07:46:06;60.17;;;40.65;;
1446;SDS011;717;51.522;7.266;2023-02-23T07:48:35;59.15;;;39.83;;
1446;SDS011;717;51.522;7.266;2023-02-23T07:51:07;65.28;;;41.28;;
1446;SDS011;717;51.522;7.266;2023-02-23T07:53:38;60.13;;;39.60;;
1446;SDS011;717;51.522;7.266;2023-02-23T07:56:07;56.88;;;38.85;;
1446;SDS011;717;51.522;7.266;2023-02-23T07:58:39;54.47;;;38.13;;
1446;SDS011;717;51.522;7.266;2023-02-23T08:01:10;55.75;;;38.28;;
1446;SDS011;717;51.522;7.266;2023-02-23T08:03:39;52.95;;;37.70;;
1446;SDS011;717;51.522;7.266;2023-02-23T08:06:13;53.60;;;35.97;;
1446;SDS011;717;51.522;7.266;2023-02-23T08:08:43;52.75;;;37.58;;
1446;SDS011;717;51.522;7.266;2023-02-23T08:11:11;52.13;;;36.67;;
1446;SDS011;717;51.522;7.266;2023-02-23T08:13:43;50.53;;;35.25;;
1446;SDS011;717;51.522;7.266;2023-02-23T08:16:12;47.00;;;34.33;;
1446;SDS011;717;51.522;7.266;2023-02-23T08:18:41;48.33;;;34.63;;
1446;SDS011;717;51.522;7.266;2023-02-23T08:21:10;45.35;;;33.45;;
1446;SDS011;717;51.522;7.266;2023-02-23T08:23:39;43.95;;;32.90;;
1446;SDS011;717;51.522;7.266;2023-02-23T08:26:08;47.72;;;33.78;;
1446;SDS011;717;51.522;7.266;2023-02-23T08:28:37;47.42;;;34.50;;
1446;SDS011;717;51.522;7.266;2023-02-23T08:31:12;51.47;;;35.15;;
1446;SDS011;717;51.522;7.266;2023-02-23T08:33:43;46.50;;;34.08;;
1446;SDS011;717;51.522;7.266;2023-02-23T08:36:12;49.65;;;34.42;;
1446;SDS011;717;51.522;7.266;2023-02-23T08:38:40;46.40;;;34.67;;
1446;SDS011;717;51.522;7.266;2023-02-23T08:41:09;44.75;;;32.67;;
1446;SDS011;717;51.522;7.266;2023-02-23T08:43:37;45.28;;;32.28;;
1446;SDS011;717;51.522;7.266;2023-02-23T08:46:06;45.08;;;32.80;;
1446;SDS011;717;51.522;7.266;2023-02-23T08:48:38;46.95;;;33.90;;
1446;SDS011;717;51.522;7.266;2023-02-23T08:51:07;47.97;;;34.90;;
1446;SDS011;717;51.522;7.266;2023-02-23T08:53:36;44.08;;;33.50;;
1446;SDS011;717;51.522;7.266;2023-02-23T08:56:05;44.47;;;32.88;;
1446;SDS011;717;51.522;7.266;2023-02-23T08:58:35;46.83;;;33.35;;
1446;SDS011;717;51.522;7.266;2023-02-23T09:01:04;42.33;;;31.88;;
1446;SDS011;717;51.522;7.266;2023-02-23T09:03:33;43.50;;;32.03;;
1446;SDS011;717;51.522;7.266;2023-02-23T09:06:09;44.03;;;32.60;;
1446;SDS011;717;51.522;7.266;2023-02-23T09:08:39;44.47;;;31.13;;
1446;SDS011;717;51.522;7.266;2023-02-23T09:11:08;45.00;;;32.83;;
1446;SDS011;717;51.522;7.266;2023-02-23T09:13:37;46.33;;;32.40;;
1446;SDS011;717;51.522;7.266;2023-02-23T09:16:06;43.95;;;31.58;;
1446;SDS011;717;51.522;7.266;2023-02-23T09:18:35;43.97;;;31.30;;
1446;SDS011;717;51.522;7.266;2023-02-23T09:21:05;44.30;;;32.05;;
1446;SDS011;717;51.522;7.266;2023-02-23T09:23:46;45.55;;;31.05;;
1446;SDS011;717;51.522;7.266;2023-02-23T09:26:16;45.15;;;31.58;;
1446;SDS011;717;51.522;7.266;2023-02-23T09:28:45;46.15;;;31.63;;
1446;SDS011;717;51.522;7.266;2023-02-23T09:31:16;43.63;;;30.20;;
1446;SDS011;717;51.522;7.266;2023-02-23T09:33:46;43.00;;;30.45;;
1446;SDS011;717;51.522;7.266;2023-02-23T09:36:19;44.60;;;30.20;;
1446;SDS011;717;51.522;7.266;2023-02-23T09:38:49;44.00;;;30.77;;
1446;SDS011;717;51.522;7.266;2023-02-23T09:41:26;45.13;;;30.05;;
1446;SDS011;717;51.522;7.266;2023-02-23T09:44:14;44.85;;;30.58;;
1446;SDS011;717;51.522;7.266;2023-02-23T09:46:50;42.15;;;30.50;;
1446;SDS011;717;51.522;7.266;2023-02-23T09:49:33;45.42;;;30.40;;
1446;SDS011;717;51.522;7.266;2023-02-23T09:52:08;44.55;;;30.52;;
1446;SDS011;717;51.522;7.266;2023-02-23T09:54:44;44.15;;;30.05;;
1446;SDS011;717;51.522;7.266;2023-02-23T09:57:14;44.03;;;29.95;;
1446;SDS011;717;51.522;7.266;2023-02-23T09:59:46;44.38;;;30.90;;
1446;SDS011;717;51.522;7.266;2023-02-23T10:02:17;44.95;;;30.88;;
1446;SDS011;717;51.522;7.266;2023-02-23T10:04:51;48.15;;;32.40;;
1446;SDS011;717;51.522;7.266;2023-02-23T10:07:26;45.15;;;30.67;;
1446;SDS011;717;51.522;7.266;2023-02-23T10:10:06;49.70;;;31.77;;
1446;SDS011;717;51.522;7.266;2023-02-23T10:12:47;41.83;;;29.67;;
1446;SDS011;717;51.522;7.266;2023-02-23T10:15:26;44.47;;;31.08;;
1446;SDS011;717;51.522;7.266;2023-02-23T10:18:04;43.78;;;30.55;;
1446;SDS011;717;51.522;7.266;2023-02-23T10:20:43;38.42;;;26.83;;
1446;SDS011;717;51.522;7.266;2023-02-23T10:23:20;38.10;;;26.13;;
1446;SDS011;717;51.522;7.266;2023-02-23T10:25:55;36.42;;;25.52;;
1446;SDS011;717;51.522;7.266;2023-02-23T10:28:26;35.63;;;25.40;;
1446;SDS011;717;51.522;7.266;2023-02-23T10:31:00;35.88;;;25.65;;
1446;SDS011;717;51.522;7.266;2023-02-23T10:33:31;35.75;;;25.45;;
1446;SDS011;717;51.522;7.266;2023-02-23T10:36:08;36.42;;;25.02;;
1446;SDS011;717;51.522;7.266;2023-02-23T10:38:43;34.65;;;23.45;;
1446;SDS011;717;51.522;7.266;2023-02-23T10:41:12;33.97;;;25.08;;
1446;SDS011;717;51.522;7.266;2023-02-23T10:43:41;33.58;;;24.17;;
1446;SDS011;717;51.522;7.266;2023-02-23T10:46:10;35.63;;;25.38;;
1446;SDS011;717;51.522;7.266;2023-02-23T10:48:48;37.22;;;24.75;;
1446;SDS011;717;51.522;7.266;2023-02-23T10:51:21;29.88;;;22.52;;
1446;SDS011;717;51.522;7.266;2023-02-23T10:53:56;33.15;;;23.77;;
1446;SDS011;717;51.522;7.266;2023-02-23T10:56:25;32.75;;;23.38;;
1446;SDS011;717;51.522;7.266;2023-02-23T10:58:58;34.55;;;23.58;;
1446;SDS011;717;51.522;7.266;2023-02-23T11:01:32;31.05;;;22.08;;
1446;SDS011;717;51.522;7.266;2023-02-23T11:04:12;33.10;;;24.08;;
1446;SDS011;717;51.522;7.266;2023-02-23T11:06:46;35.03;;;23.58;;
1446;SDS011;717;51.522;7.266;2023-02-23T11:09:24;32.90;;;23.48;;
1446;SDS011;717;51.522;7.266;2023-02-23T11:11:55;31.75;;;21.67;;
1446;SDS011;717;51.522;7.266;2023-02-23T11:14:25;30.90;;;21.17;;
1446;SDS011;717;51.522;7.266;2023-02-23T11:16:55;31.45;;;20.98;;
1446;SDS011;717;51.522;7.266;2023-02-23T11:19:28;32.58;;;21.45;;
1446;SDS011;717;51.522;7.266;2023-02-23T11:22:01;31.10;;;21.13;;
1446;SDS011;717;51.522;7.266;2023-02-23T11:24:34;31.33;;;21.40;;
1446;SDS011;717;51.522;7.266;2023-02-23T11:27:05;32.35;;;22.05;;
1446;SDS011;717;51.522;7.266;2023-02-23T11:29:45;29.17;;;19.83;;
1446;SDS011;717;51.522;7.266;2023-02-23T11:32:18;33.22;;;21.27;;
1446;SDS011;717;51.522;7.266;2023-02-23T11:37:39;32.90;;;20.75;;
1446;SDS011;717;51.522;7.266;2023-02-23T11:40:19;30.05;;;20.65;;
1446;SDS011;717;51.522;7.266;2023-02-23T11:42:51;28.65;;;19.90;;
1446;SDS011;717;51.522;7.266;2023-02-23T11:45:21;31.30;;;21.30;;
1446;SDS011;717;51.522;7.266;2023-02-23T11:47:53;30.92;;;21.70;;
1446;SDS011;717;51.522;7.266;2023-02-23T11:50:25;28.02;;;20.70;;
1446;SDS011;717;51.522;7.266;2023-02-23T11:53:00;30.95;;;22.05;;
1446;SDS011;717;51.522;7.266;2023-02-23T11:55:34;35.80;;;22.88;;
1446;SDS011;717;51.522;7.266;2023-02-23T11:58:07;29.70;;;21.15;;
1446;SDS011;717;51.522;7.266;2023-02-23T12:00:38;30.83;;;20.23;;
1446;SDS011;717;51.522;7.266;2023-02-23T12:03:11;32.13;;;20.08;;
1446;SDS011;717;51.522;7.266;2023-02-23T12:05:48;30.88;;;20.02;;
1446;SDS011;717;51.522;7.266;2023-02-23T12:08:24;31.08;;;20.50;;
1446;SDS011;717;51.522;7.266;2023-02-23T12:11:04;34.33;;;21.52;;
1446;SDS011;717;51.522;7.266;2023-02-23T12:13:37;35.47;;;23.42;;
1446;SDS011;717;51.522;7.266;2023-02-23T12:16:11;35.97;;;24.45;;
1446;SDS011;717;51.522;7.266;2023-02-23T12:18:47;36.97;;;24.55;;
1446;SDS011;717;51.522;7.266;2023-02-23T12:21:24;39.10;;;25.60;;
1446;SDS011;717;51.522;7.266;2023-02-23T12:24:02;37.50;;;25.63;;
1446;SDS011;717;51.522;7.266;2023-02-23T12:26:43;36.22;;;24.95;;
1446;SDS011;717;51.522;7.266;2023-02-23T12:29:18;37.47;;;24.95;;
1446;SDS011;717;51.522;7.266;2023-02-23T12:31:55;35.03;;;23.58;;
1446;SDS011;717;51.522;7.266;2023-02-23T12:34:27;32.47;;;22.77;;
1446;SDS011;717;51.522;7.266;2023-02-23T12:37:03;32.17;;;22.60;;
1446;SDS011;717;51.522;7.266;2023-02-23T12:39:44;31.05;;;20.80;;
1446;SDS011;717;51.522;7.266;2023-02-23T12:42:21;29.38;;;20.30;;
1446;SDS011;717;51.522;7.266;2023-02-23T12:44:53;28.10;;;18.70;;
1446;SDS011;717;51.522;7.266;2023-02-23T12:47:28;28.13;;;19.00;;
1446;SDS011;717;51.522;7.266;2023-02-23T12:50:04;27.38;;;18.27;;
1446;SDS011;717;51.522;7.266;2023-02-23T12:52:39;27.30;;;18.63;;
1446;SDS011;717;51.522;7.266;2023-02-23T12:55:14;25.23;;;17.38;;
1446;SDS011;717;51.522;7.266;2023-02-23T12:57:51;24.02;;;16.63;;
1446;SDS011;717;51.522;7.266;2023-02-23T13:00:35;24.52;;;17.52;;
1446;SDS011;717;51.522;7.266;2023-02-23T13:06:15;22.98;;;15.85;;
1446;SDS011;717;51.522;7.266;2023-02-23T13:09:00;23.08;;;16.20;;
1446;SDS011;717;51.522;7.266;2023-02-23T13:11:40;22.58;;;15.52;;
1446;SDS011;717;51.522;7.266;2023-02-23T13:14:28;22.63;;;15.93;;
1446;SDS011;717;51.522;7.266;2023-02-23T13:17:07;22.48;;;16.13;;
1446;SDS011;717;51.522;7.266;2023-02-23T13:19:55;23.05;;;15.75;;
1446;SDS011;717;51.522;7.266;2023-02-23T13:22:29;22.98;;;15.65;;
1446;SDS011;717;51.522;7.266;2023-02-23T13:25:02;23.17;;;15.48;;
1446;SDS011;717;51.522;7.266;2023-02-23T13:27:39;19.38;;;14.63;;
1446;SDS011;717;51.522;7.266;2023-02-23T13:30:17;22.17;;;15.60;;
1446;SDS011;717;51.522;7.266;2023-02-23T13:32:46;20.65;;;15.00;;
1446;SDS011;717;51.522;7.266;2023-02-23T13:35:16;21.35;;;15.48;;
1446;SDS011;717;51.522;7.266;2023-02-23T13:37:48;22.63;;;15.30;;
1446;SDS011;717;51.522;7.266;2023-02-23T13:40:22;21.23;;;15.13;;
1446;SDS011;717;51.522;7.266;2023-02-23T13:42:58;21.50;;;15.82;;
1446;SDS011;717;51.522;7.266;2023-02-23T13:45:43;20.80;;;14.32;;
1446;SDS011;717;51.522;7.266;2023-02-23T13:48:26;20.85;;;14.93;;
1446;SDS011;717;51.522;7.266;2023-02-23T13:51:02;22.60;;;15.60;;
1446;SDS011;717;51.522;7.266;2023-02-23T13:53:37;23.60;;;15.82;;
1446;SDS011;717;51.522;7.266;2023-02-23T13:56:10;23.02;;;15.82;;
1446;SDS011;717;51.522;7.266;2023-02-23T13:58:44;24.85;;;15.52;;
1446;SDS011;717;51.522;7.266;2023-02-23T14:01:19;26.52;;;16.20;;
1446;SDS011;717;51.522;7.266;2023-02-23T14:03:53;22.38;;;15.02;;
1446;SDS011;717;51.522;7.266;2023-02-23T14:06:25;22.48;;;15.05;;
1446;SDS011;717;51.522;7.266;2023-02-23T14:08:56;23.42;;;16.58;;
1446;SDS011;717;51.522;7.266;2023-02-23T14:11:27;24.20;;;16.70;;
1446;SDS011;717;51.522;7.266;2023-02-23T14:14:03;25.35;;;16.92;;
1446;SDS011;717;51.522;7.266;2023-02-23T14:16:34;26.38;;;17.15;;
1446;SDS011;717;51.522;7.266;2023-02-23T14:19:09;21.35;;;15.98;;
1446;SDS011;717;51.522;7.266;2023-02-23T14:21:41;24.48;;;15.77;;
1446;SDS011;717;51.522;7.266;2023-02-23T14:24:16;24.92;;;16.98;;
1446;SDS011;717;51.522;7.266;2023-02-23T14:33:00;23.50;;;15.90;;
1446;SDS011;717;51.522;7.266;2023-02-23T14:35:37;21.75;;;15.00;;
1446;SDS011;717;51.522;7.266;2023-02-23T14:38:16;21.98;;;15.00;;
1446;SDS011;717;51.522;7.266;2023-02-23T14:40:52;24.00;;;15.77;;
1446;SDS011;717;51.522;7.266;2023-02-23T14:43:32;24.23;;;15.63;;
1446;SDS011;717;51.522;7.266;2023-02-23T14:46:10;21.98;;;15.48;;
1446;SDS011;717;51.522;7.266;2023-02-23T14:48:54;22.13;;;14.95;;
1446;SDS011;717;51.522;7.266;2023-02-23T14:54:20;25.17;;;14.85;;
1446;SDS011;717;51.522;7.266;2023-02-23T14:56:51;25.90;;;15.93;;
1446;SDS011;717;51.522;7.266;2023-02-23T14:59:24;23.05;;;15.20;;
1446;SDS011;717;51.522;7.266;2023-02-23T15:01:55;22.23;;;15.45;;
1446;SDS011;717;51.522;7.266;2023-02-23T15:04:30;24.60;;;15.70;;
1446;SDS011;717;51.522;7.266;2023-02-23T15:07:02;23.40;;;15.65;;
1446;SDS011;717;51.522;7.266;2023-02-23T15:09:34;25.98;;;16.83;;
1446;SDS011;717;51.522;7.266;2023-02-23T15:12:11;23.90;;;15.80;;
1446;SDS011;717;51.522;7.266;2023-02-23T15:14:42;26.95;;;17.35;;
1446;SDS011;717;51.522;7.266;2023-02-23T15:17:14;23.00;;;15.10;;
1446;SDS011;717;51.522;7.266;2023-02-23T15:19:51;22.63;;;14.35;;
1446;SDS011;717;51.522;7.266;2023-02-23T15:22:24;21.58;;;14.50;;
1446;SDS011;717;51.522;7.266;2023-02-23T15:24:55;23.63;;;15.20;;
1446;SDS011;717;51.522;7.266;2023-02-23T15:27:29;24.48;;;15.32;;
1446;SDS011;717;51.522;7.266;2023-02-23T15:30:21;24.17;;;15.45;;
1446;SDS011;717;51.522;7.266;2023-02-23T15:33:00;26.30;;;14.57;;
1446;SDS011;717;51.522;7.266;2023-02-23T15:35:33;29.38;;;17.70;;
1446;SDS011;717;51.522;7.266;2023-02-23T15:38:10;28.77;;;16.25;;
1446;SDS011;717;51.522;7.266;2023-02-23T15:40:44;25.88;;;15.68;;
1446;SDS011;717;51.522;7.266;2023-02-23T15:43:13;27.00;;;16.88;;
1446;SDS011;717;51.522;7.266;2023-02-23T15:45:42;26.70;;;17.38;;
1446;SDS011;717;51.522;7.266;2023-02-23T15:48:16;30.67;;;19.23;;
1446;SDS011;717;51.522;7.266;2023-02-23T15:50:50;31.52;;;18.45;;
1446;SDS011;717;51.522;7.266;2023-02-23T15:53:24;27.48;;;17.50;;
1446;SDS011;717;51.522;7.266;2023-02-23T15:55:56;27.95;;;17.27;;
1446;SDS011;717;51.522;7.266;2023-02-23T15:58:30;25.52;;;15.68;;
1446;SDS011;717;51.522;7.266;2023-02-23T16:01:07;28.15;;;16.63;;
1446;SDS011;717;51.522;7.266;2023-02-23T16:03:38;22.60;;;14.98;;